Meath Environmental Platform

Observations for Trim Market St

Time AQI Temp °C Hum % Pres Pa CO μg/m³ H₂S μg/m³ NO μg/m³ NO₂ μg/m³ O₃ μg/m³ SO₂ μg/m³ PM1 μg/m³ PM2.5 μg/m³ PM10 μg/m³
Tuesday 18 August 2026
07:20 2 17.6 79 2,147,483,647 0.19 0 1.95 6.85 62.27 0 0 1.68 4.09
07:19 2 17.5 79 2,147,483,647 0.19 0 1.96 6.69 63.39 0 0.71 1.68 4.67
07:11 2 17.4 79 2,147,483,647 0.21 0 2.04 6.88 69.74 0 0.71 2.14 5.25
07:09 2 17.3 79 2,147,483,647 0.16 0 2.05 6.27 62.29 0 0.71 2.62 5.82
07:05 2 17.3 79 2,147,483,647 0.2 0 1.96 6.16 63.84 0 0 2.15 5.24
07:01 2 17.3 79 2,147,483,647 0.14 0 1.99 6.33 64.47 0 2.14 2.63 5.24
06:56 2 17.3 79 2,147,483,647 0.13 0 1.95 5.83 64.62 0 0.71 2.16 4.66
06:55 2 17.3 79 2,147,483,647 0.13 0 1.95 6.68 70.18 0 0.71 2.63 5.81
06:54 2 17.3 79 2,147,483,647 0.14 0 1.96 5.55 64.91 0 0.71 1.69 4.08
06:52 2 17.3 79 2,147,483,647 0.15 0 1.95 6.23 66.18 0 1.43 3.12 7.53
06:50 2 17.3 78 2,147,483,647 0.2 0 1.96 12.75 69.81 0 1.43 3.6 6.95
06:49 2 17.3 78 2,147,483,647 0.17 0 2.02 18.84 54.54 0 0.71 3.13 6.95
06:48 2 17.4 78 2,147,483,647 0.17 0 2.03 27.59 49.3 0 1.43 3.13 8.11
06:47 2 17.3 78 2,147,483,647 0.18 0 2.07 40.23 51.79 0 2.14 4.08 6.95
06:45 2 17.4 78 410 0.15 0 1.99 7.11 70.28 0 1.43 2.66 5.22
06:44 2 17.4 78 2,928 0.16 0 1.93 7.01 69.68 0 1.43 3.15 6.37
06:40 2 17.4 78 9,833 0.16 0 1.93 6 66.48 0 1.43 2.69 5.21
06:37 2 17.4 78 13,342 0.14 0 1.92 7.28 68.74 0 0.71 3.17 6.37
06:31 2 17.4 78 13,959 0.13 0 1.92 6.1 63.42 0 0.71 2.7 7.53
06:29 2 17.4 78 14,296 0.15 0 1.92 6.55 65.93 0 1.43 3.18 5.78